Terminal Aerodrome Forecast
Issued by NWS

Home | Current Version | Previous Version | Text Only | Print | Product List | Glossary On
Versions: 1 2 3 4 5 6 7 8 9 10 11 12 13 14 15 16 17 18 19 20 21
903
FTUS43 KDVN 041730
TAFBRL
TAF
KBRL 041730Z 0418/0518 35016G25KT P6SM BKN050
     FM050100 33007KT P6SM SKC
     FM051500 36008KT P6SM SKC=

USA.gov is the U.S. government's official web portal to all federal, state and local government web resources and services.